CEB991 RPLL-RPMR
Flight info
| Callsign | CEB991 |
|---|---|
| Flight time | 1h 35m |
| Altitude | 39000 |
| Route | RDVXVERDE/06 VERD2R VERDE A461 SAJ W3 IOO B472 COT W19 MELBY MELB3R |
| Aircraft | A20N/M-SDE2E3FGHIJ1RWXY/C |
Departure
| Time | 2026-05-08 07:24 |
|---|---|
| Airport | Ninoy Aquino International Airport (RPLL) |
Arrival
| Time | 2026-05-08 09:00 |
|---|---|
| Airport | General Santos International Airport (RPMR) |
| Time | Latitude | Longitude | Altitude | Speed | Heading |
|---|---|---|---|---|---|
| 2026-05-08 06:38 | 14.52505 | 121.00660 | 84 ft | 0 kts | 45° |
| 2026-05-08 06:40 | 14.52420 | 121.00743 | 84 ft | 0 kts | 44° |
| 2026-05-08 07:03 | 14.52417 | 121.00739 | 84 ft | 2 kts | 45° |
| 2026-05-08 07:03 | 14.52406 | 121.00729 | 84 ft | 2 kts | 44° |
| 2026-05-08 07:04 | 14.52395 | 121.00718 | 84 ft | 2 kts | 44° |
| 2026-05-08 07:04 | 14.52385 | 121.00707 | 84 ft | 2 kts | 44° |
| 2026-05-08 07:04 | 14.52375 | 121.00695 | 84 ft | 2 kts | 64° |
| 2026-05-08 07:04 | 14.52370 | 121.00680 | 84 ft | 2 kts | 79° |
| 2026-05-08 07:05 | 14.52369 | 121.00665 | 84 ft | 2 kts | 95° |
| 2026-05-08 07:05 | 14.52372 | 121.00649 | 84 ft | 2 kts | 111° |
| 2026-05-08 07:05 | 14.52379 | 121.00635 | 84 ft | 2 kts | 127° |
| 2026-05-08 07:05 | 14.52384 | 121.00629 | 84 ft | 1 kts | 136° |
| 2026-05-08 07:06 | 14.52387 | 121.00626 | 84 ft | 0 kts | 136° |
| 2026-05-08 07:11 | 14.52383 | 121.00631 | 84 ft | 1 kts | 134° |
| 2026-05-08 07:11 | 14.52373 | 121.00642 | 84 ft | 2 kts | 133° |
| 2026-05-08 07:12 | 14.52354 | 121.00661 | 84 ft | 5 kts | 135° |
| 2026-05-08 07:12 | 14.52324 | 121.00693 | 84 ft | 7 kts | 135° |
| 2026-05-08 07:12 | 14.52284 | 121.00733 | 84 ft | 8 kts | 134° |
| 2026-05-08 07:12 | 14.52232 | 121.00774 | 84 ft | 10 kts | 173° |
| 2026-05-08 07:13 | 14.52186 | 121.00758 | 84 ft | 7 kts | 188° |
| 2026-05-08 07:13 | 14.52133 | 121.00785 | 84 ft | 9 kts | 137° |
| 2026-05-08 07:13 | 14.52082 | 121.00837 | 84 ft | 11 kts | 134° |
| 2026-05-08 07:13 | 14.52040 | 121.00880 | 84 ft | 4 kts | 136° |
| 2026-05-08 07:14 | 14.52014 | 121.00908 | 84 ft | 6 kts | 134° |
| 2026-05-08 07:14 | 14.51975 | 121.00948 | 84 ft | 9 kts | 135° |
| 2026-05-08 07:14 | 14.51921 | 121.01005 | 84 ft | 13 kts | 135° |
| 2026-05-08 07:14 | 14.51847 | 121.01082 | 84 ft | 16 kts | 134° |
| 2026-05-08 07:15 | 14.51757 | 121.01174 | 84 ft | 19 kts | 135° |
| 2026-05-08 07:15 | 14.51652 | 121.01282 | 84 ft | 22 kts | 135° |
| 2026-05-08 07:15 | 14.51539 | 121.01401 | 84 ft | 24 kts | 135° |
| 2026-05-08 07:15 | 14.51430 | 121.01514 | 84 ft | 20 kts | 134° |
| 2026-05-08 07:16 | 14.51326 | 121.01620 | 84 ft | 21 kts | 135° |
| 2026-05-08 07:16 | 14.51219 | 121.01733 | 84 ft | 22 kts | 135° |
| 2026-05-08 07:16 | 14.51110 | 121.01845 | 84 ft | 14 kts | 134° |
| 2026-05-08 07:16 | 14.51038 | 121.01918 | 84 ft | 11 kts | 135° |
| 2026-05-08 07:17 | 14.51013 | 121.01927 | 84 ft | 4 kts | 203° |
| 2026-05-08 07:17 | 14.50987 | 121.01891 | 84 ft | 8 kts | 239° |
| 2026-05-08 07:17 | 14.50949 | 121.01824 | 84 ft | 13 kts | 239° |
| 2026-05-08 07:17 | 14.50897 | 121.01732 | 84 ft | 16 kts | 240° |
| 2026-05-08 07:18 | 14.50839 | 121.01626 | 84 ft | 17 kts | 239° |
| 2026-05-08 07:18 | 14.50772 | 121.01505 | 84 ft | 20 kts | 241° |
| 2026-05-08 07:18 | 14.50702 | 121.01379 | 84 ft | 20 kts | 241° |
| 2026-05-08 07:18 | 14.50632 | 121.01253 | 84 ft | 20 kts | 240° |
| 2026-05-08 07:19 | 14.50561 | 121.01127 | 84 ft | 20 kts | 240° |
| 2026-05-08 07:19 | 14.50492 | 121.01001 | 84 ft | 20 kts | 240° |
| 2026-05-08 07:19 | 14.50422 | 121.00876 | 84 ft | 20 kts | 240° |
| 2026-05-08 07:19 | 14.50352 | 121.00748 | 84 ft | 20 kts | 240° |
| 2026-05-08 07:20 | 14.50283 | 121.00623 | 84 ft | 20 kts | 240° |
| 2026-05-08 07:20 | 14.50213 | 121.00496 | 84 ft | 20 kts | 240° |
| 2026-05-08 07:20 | 14.50141 | 121.00369 | 84 ft | 20 kts | 240° |
| 2026-05-08 07:20 | 14.50071 | 121.00241 | 84 ft | 20 kts | 240° |
| 2026-05-08 07:21 | 14.50000 | 121.00117 | 84 ft | 20 kts | 240° |
| 2026-05-08 07:21 | 14.49948 | 121.00017 | 84 ft | 11 kts | 240° |
| 2026-05-08 07:21 | 14.49897 | 120.99965 | 84 ft | 9 kts | 188° |
| 2026-05-08 07:21 | 14.49835 | 120.99991 | 84 ft | 7 kts | 150° |
| 2026-05-08 07:22 | 14.49806 | 121.00029 | 84 ft | 7 kts | 100° |
| 2026-05-08 07:22 | 14.49818 | 121.00072 | 84 ft | 0 kts | 62° |
| 2026-05-08 07:23 | 14.49818 | 121.00073 | 84 ft | 0 kts | 62° |
| 2026-05-08 07:23 | 14.49876 | 121.00180 | 84 ft | 49 kts | 60° |
| 2026-05-08 07:24 | 14.50161 | 121.00697 | 84 ft | 114 kts | 60° |
| 2026-05-08 07:24 | 14.50650 | 121.01578 | 86 ft | 167 kts | 62° |
| 2026-05-08 07:24 | 14.51276 | 121.02668 | 434 ft | 181 kts | 63° |
| 2026-05-08 07:24 | 14.51919 | 121.03784 | 1112 ft | 180 kts | 65° |
| 2026-05-08 07:25 | 14.52518 | 121.04870 | 1824 ft | 176 kts | 63° |
| 2026-05-08 07:25 | 14.53131 | 121.05984 | 2214 ft | 185 kts | 66° |
| 2026-05-08 07:25 | 14.54484 | 121.08482 | 2782 ft | 215 kts | 63° |
| 2026-05-08 07:26 | 14.55258 | 121.09864 | 3124 ft | 229 kts | 62° |
| 2026-05-08 07:26 | 14.56068 | 121.11342 | 3346 ft | 249 kts | 69° |
| 2026-05-08 07:26 | 14.56385 | 121.13131 | 3660 ft | 259 kts | 100° |
| 2026-05-08 07:26 | 14.55794 | 121.14874 | 4114 ft | 265 kts | 128° |
| 2026-05-08 07:27 | 14.54555 | 121.16279 | 4808 ft | 267 kts | 137° |
| 2026-05-08 07:27 | 14.53228 | 121.17622 | 5538 ft | 270 kts | 138° |
| 2026-05-08 07:27 | 14.51887 | 121.18990 | 6166 ft | 277 kts | 138° |
| 2026-05-08 07:27 | 14.50514 | 121.20401 | 6863 ft | 282 kts | 138° |
| 2026-05-08 07:28 | 14.49105 | 121.21849 | 7501 ft | 290 kts | 138° |
| 2026-05-08 07:28 | 14.47536 | 121.23142 | 8165 ft | 291 kts | 157° |
| 2026-05-08 07:28 | 14.45625 | 121.23658 | 8885 ft | 286 kts | 182° |
| 2026-05-08 07:28 | 14.43710 | 121.23319 | 9554 ft | 284 kts | 206° |
| 2026-05-08 07:29 | 14.42084 | 121.22198 | 10164 ft | 285 kts | 228° |
| 2026-05-08 07:29 | 14.40731 | 121.20673 | 10663 ft | 296 kts | 231° |
| 2026-05-08 07:29 | 14.39337 | 121.19034 | 11000 ft | 312 kts | 231° |
| 2026-05-08 07:29 | 14.37880 | 121.17327 | 11523 ft | 321 kts | 231° |
| 2026-05-08 07:30 | 14.36396 | 121.15605 | 12163 ft | 326 kts | 231° |
| 2026-05-08 07:30 | 14.34874 | 121.13852 | 12823 ft | 330 kts | 230° |
| 2026-05-08 07:30 | 14.33350 | 121.12107 | 13514 ft | 332 kts | 230° |
| 2026-05-08 07:30 | 14.31664 | 121.10465 | 14172 ft | 338 kts | 214° |
| 2026-05-08 07:31 | 14.29433 | 121.09622 | 14699 ft | 350 kts | 189° |
| 2026-05-08 07:31 | 14.26989 | 121.09424 | 15277 ft | 357 kts | 184° |
| 2026-05-08 07:31 | 14.24509 | 121.09309 | 15869 ft | 362 kts | 184° |
| 2026-05-08 07:31 | 14.22003 | 121.09180 | 16480 ft | 365 kts | 184° |
| 2026-05-08 07:32 | 14.19459 | 121.09008 | 17077 ft | 369 kts | 185° |
| 2026-05-08 07:32 | 14.16912 | 121.08813 | 17660 ft | 373 kts | 185° |
| 2026-05-08 07:32 | 14.14318 | 121.08602 | 18261 ft | 377 kts | 185° |
| 2026-05-08 07:32 | 14.11683 | 121.08392 | 18860 ft | 380 kts | 185° |
| 2026-05-08 07:33 | 14.09047 | 121.08173 | 19445 ft | 383 kts | 185° |
| 2026-05-08 07:33 | 14.06403 | 121.07941 | 20030 ft | 386 kts | 185° |
| 2026-05-08 07:33 | 14.03739 | 121.07707 | 20616 ft | 389 kts | 185° |
| 2026-05-08 07:33 | 14.01041 | 121.07473 | 21205 ft | 392 kts | 185° |
| 2026-05-08 07:34 | 13.98315 | 121.07238 | 21791 ft | 395 kts | 185° |
| 2026-05-08 07:34 | 13.95582 | 121.07003 | 22372 ft | 398 kts | 184° |
| 2026-05-08 07:34 | 13.92850 | 121.06768 | 23154 ft | 395 kts | 185° |
| 2026-05-08 07:34 | 13.90169 | 121.06542 | 24050 ft | 388 kts | 185° |
| 2026-05-08 07:35 | 13.87494 | 121.06321 | 24632 ft | 390 kts | 184° |
| 2026-05-08 07:35 | 13.84765 | 121.06094 | 25132 ft | 394 kts | 185° |
| 2026-05-08 07:35 | 13.82044 | 121.05866 | 25644 ft | 397 kts | 185° |
| 2026-05-08 07:35 | 13.79302 | 121.05633 | 26168 ft | 399 kts | 185° |
| 2026-05-08 07:36 | 13.76525 | 121.05397 | 26658 ft | 402 kts | 185° |
| 2026-05-08 07:36 | 13.73733 | 121.05159 | 27126 ft | 405 kts | 185° |
| 2026-05-08 07:36 | 13.70951 | 121.04922 | 27573 ft | 408 kts | 185° |
| 2026-05-08 07:36 | 13.68127 | 121.04681 | 28005 ft | 410 kts | 185° |
| 2026-05-08 07:37 | 13.65281 | 121.04438 | 28418 ft | 413 kts | 185° |
| 2026-05-08 07:37 | 13.62406 | 121.04193 | 28815 ft | 416 kts | 185° |
| 2026-05-08 07:37 | 13.59525 | 121.03947 | 29195 ft | 418 kts | 185° |
| 2026-05-08 07:37 | 13.56649 | 121.03703 | 29555 ft | 421 kts | 185° |
| 2026-05-08 07:38 | 13.53730 | 121.03455 | 29905 ft | 423 kts | 185° |
| 2026-05-08 07:38 | 13.50793 | 121.03243 | 30238 ft | 425 kts | 182° |
| 2026-05-08 07:38 | 13.47832 | 121.03192 | 30560 ft | 427 kts | 180° |
| 2026-05-08 07:38 | 13.44863 | 121.03217 | 30871 ft | 429 kts | 179° |
| 2026-05-08 07:39 | 13.41905 | 121.03250 | 31165 ft | 431 kts | 179° |
| 2026-05-08 07:39 | 13.38893 | 121.03284 | 31453 ft | 433 kts | 179° |
| 2026-05-08 07:39 | 13.35858 | 121.03317 | 31734 ft | 435 kts | 179° |
| 2026-05-08 07:39 | 13.32843 | 121.03349 | 32004 ft | 437 kts | 179° |
| 2026-05-08 07:40 | 13.29829 | 121.03380 | 32286 ft | 438 kts | 179° |
| 2026-05-08 07:40 | 13.26758 | 121.03411 | 32648 ft | 438 kts | 179° |
| 2026-05-08 07:40 | 13.23758 | 121.03440 | 33015 ft | 436 kts | 179° |
| 2026-05-08 07:40 | 13.20731 | 121.03469 | 33365 ft | 435 kts | 179° |
| 2026-05-08 07:41 | 13.17708 | 121.03497 | 33697 ft | 435 kts | 179° |
| 2026-05-08 07:41 | 13.14700 | 121.03526 | 34018 ft | 434 kts | 179° |
| 2026-05-08 07:41 | 13.11702 | 121.03556 | 34332 ft | 434 kts | 179° |
| 2026-05-08 07:41 | 13.08710 | 121.03585 | 34639 ft | 433 kts | 179° |
| 2026-05-08 07:42 | 13.05700 | 121.03616 | 34940 ft | 432 kts | 179° |
| 2026-05-08 07:42 | 13.02693 | 121.03645 | 35234 ft | 432 kts | 179° |
| 2026-05-08 07:42 | 12.99701 | 121.03677 | 35517 ft | 431 kts | 179° |
| 2026-05-08 07:42 | 12.96715 | 121.03709 | 35788 ft | 430 kts | 179° |
| 2026-05-08 07:43 | 12.93731 | 121.03741 | 36050 ft | 430 kts | 179° |
| 2026-05-08 07:43 | 12.90775 | 121.03773 | 36297 ft | 430 kts | 179° |
| 2026-05-08 07:43 | 12.87806 | 121.03803 | 36534 ft | 429 kts | 179° |
| 2026-05-08 07:43 | 12.84799 | 121.03833 | 36760 ft | 429 kts | 179° |
| 2026-05-08 07:44 | 12.81818 | 121.03858 | 36975 ft | 429 kts | 179° |
| 2026-05-08 07:44 | 12.78842 | 121.03882 | 37182 ft | 429 kts | 179° |
| 2026-05-08 07:44 | 12.75891 | 121.03908 | 37379 ft | 429 kts | 179° |
| 2026-05-08 07:44 | 12.72893 | 121.03935 | 37578 ft | 429 kts | 179° |
| 2026-05-08 07:45 | 12.69944 | 121.03964 | 37767 ft | 429 kts | 179° |
| 2026-05-08 07:45 | 12.66954 | 121.03993 | 37952 ft | 429 kts | 179° |
| 2026-05-08 07:45 | 12.63968 | 121.04023 | 38132 ft | 429 kts | 179° |
| 2026-05-08 07:45 | 12.60987 | 121.04054 | 38305 ft | 429 kts | 179° |
| 2026-05-08 07:46 | 12.58022 | 121.04083 | 38471 ft | 429 kts | 179° |
| 2026-05-08 07:46 | 12.55041 | 121.04114 | 38626 ft | 429 kts | 179° |
| 2026-05-08 07:46 | 12.52049 | 121.04144 | 38759 ft | 430 kts | 179° |
| 2026-05-08 07:46 | 12.49102 | 121.04174 | 38878 ft | 431 kts | 179° |
| 2026-05-08 07:47 | 12.46081 | 121.04205 | 38971 ft | 432 kts | 179° |
| 2026-05-08 07:47 | 12.40136 | 121.04840 | 38977 ft | 433 kts | 166° |
| 2026-05-08 07:48 | 12.34530 | 121.06943 | 38980 ft | 433 kts | 152° |
| 2026-05-08 07:48 | 12.29598 | 121.10411 | 38981 ft | 433 kts | 138° |
| 2026-05-08 07:49 | 12.25195 | 121.14612 | 38982 ft | 433 kts | 136° |
| 2026-05-08 07:49 | 12.20861 | 121.18806 | 38982 ft | 433 kts | 136° |
| 2026-05-08 07:50 | 12.16470 | 121.23023 | 38982 ft | 433 kts | 137° |
| 2026-05-08 07:50 | 12.12082 | 121.27222 | 38982 ft | 433 kts | 137° |
| 2026-05-08 07:51 | 12.07712 | 121.31398 | 38982 ft | 433 kts | 137° |
| 2026-05-08 07:51 | 12.03324 | 121.35585 | 38982 ft | 433 kts | 137° |
| 2026-05-08 07:52 | 11.98932 | 121.39772 | 38982 ft | 433 kts | 137° |
| 2026-05-08 07:52 | 11.94543 | 121.43958 | 38982 ft | 433 kts | 137° |
| 2026-05-08 07:53 | 11.90136 | 121.48160 | 38982 ft | 433 kts | 137° |
| 2026-05-08 07:53 | 11.85743 | 121.52325 | 38982 ft | 433 kts | 137° |
| 2026-05-08 07:54 | 11.81353 | 121.56491 | 38982 ft | 433 kts | 137° |
| 2026-05-08 07:54 | 11.76960 | 121.60672 | 38982 ft | 433 kts | 137° |
| 2026-05-08 07:55 | 11.72556 | 121.64870 | 38982 ft | 433 kts | 137° |
| 2026-05-08 07:55 | 11.68187 | 121.69052 | 38982 ft | 433 kts | 137° |
| 2026-05-08 07:56 | 11.63796 | 121.73238 | 38982 ft | 433 kts | 137° |
| 2026-05-08 07:56 | 11.59408 | 121.77406 | 38982 ft | 433 kts | 137° |
| 2026-05-08 07:57 | 11.55008 | 121.81585 | 38982 ft | 433 kts | 137° |
| 2026-05-08 07:57 | 11.50601 | 121.85770 | 38982 ft | 433 kts | 137° |
| 2026-05-08 07:58 | 11.46218 | 121.89928 | 38982 ft | 433 kts | 137° |
| 2026-05-08 07:58 | 11.41799 | 121.94119 | 38982 ft | 433 kts | 137° |
| 2026-05-08 07:59 | 11.37416 | 121.98270 | 38984 ft | 433 kts | 137° |
| 2026-05-08 07:59 | 11.33032 | 122.02435 | 38983 ft | 433 kts | 137° |
| 2026-05-08 08:00 | 11.28631 | 122.06619 | 38982 ft | 433 kts | 137° |
| 2026-05-08 08:00 | 11.24238 | 122.10784 | 38982 ft | 433 kts | 137° |
| 2026-05-08 08:01 | 11.19827 | 122.14960 | 38981 ft | 433 kts | 137° |
| 2026-05-08 08:01 | 11.15429 | 122.19119 | 38982 ft | 433 kts | 137° |
| 2026-05-08 08:02 | 11.11018 | 122.23291 | 38982 ft | 434 kts | 137° |
| 2026-05-08 08:02 | 11.06630 | 122.27441 | 38982 ft | 433 kts | 137° |
| 2026-05-08 08:03 | 11.02228 | 122.31599 | 38982 ft | 433 kts | 137° |
| 2026-05-08 08:03 | 10.97797 | 122.35781 | 38982 ft | 433 kts | 137° |
| 2026-05-08 08:04 | 10.93387 | 122.39937 | 38982 ft | 433 kts | 137° |
| 2026-05-08 08:04 | 10.91187 | 122.42004 | 38982 ft | 433 kts | 137° |
| 2026-05-08 08:05 | 10.84340 | 122.47857 | 38980 ft | 433 kts | 144° |
| 2026-05-08 08:05 | 10.79257 | 122.51092 | 38980 ft | 433 kts | 152° |
| 2026-05-08 08:06 | 10.73839 | 122.53764 | 38981 ft | 433 kts | 155° |
| 2026-05-08 08:06 | 10.68384 | 122.56335 | 38981 ft | 433 kts | 155° |
| 2026-05-08 08:07 | 10.62961 | 122.58898 | 38982 ft | 433 kts | 155° |
| 2026-05-08 08:07 | 10.57489 | 122.61488 | 38982 ft | 433 kts | 155° |
| 2026-05-08 08:08 | 10.52068 | 122.64057 | 38982 ft | 433 kts | 155° |
| 2026-05-08 08:08 | 10.46631 | 122.66646 | 38982 ft | 433 kts | 155° |
| 2026-05-08 08:09 | 10.41187 | 122.69239 | 38982 ft | 433 kts | 155° |
| 2026-05-08 08:09 | 10.35734 | 122.71815 | 38982 ft | 433 kts | 155° |
| 2026-05-08 08:10 | 10.30270 | 122.74392 | 38982 ft | 433 kts | 155° |
| 2026-05-08 08:10 | 10.24832 | 122.76956 | 38982 ft | 433 kts | 155° |
| 2026-05-08 08:11 | 10.19395 | 122.79519 | 38982 ft | 433 kts | 155° |
| 2026-05-08 08:11 | 10.13955 | 122.82082 | 38982 ft | 433 kts | 155° |
| 2026-05-08 08:12 | 10.08496 | 122.84655 | 38982 ft | 433 kts | 155° |
| 2026-05-08 08:12 | 10.03029 | 122.87230 | 38981 ft | 433 kts | 155° |
| 2026-05-08 08:13 | 9.97602 | 122.89785 | 38982 ft | 433 kts | 155° |
| 2026-05-08 08:13 | 9.92155 | 122.92348 | 38982 ft | 433 kts | 155° |
| 2026-05-08 08:14 | 9.86701 | 122.94908 | 38982 ft | 433 kts | 155° |
| 2026-05-08 08:14 | 9.81255 | 122.97461 | 38982 ft | 433 kts | 155° |
| 2026-05-08 08:15 | 9.75812 | 123.00017 | 38982 ft | 433 kts | 155° |
| 2026-05-08 08:15 | 9.70333 | 123.02586 | 38982 ft | 433 kts | 155° |
| 2026-05-08 08:16 | 9.64886 | 123.05145 | 38982 ft | 433 kts | 155° |
| 2026-05-08 08:16 | 9.59443 | 123.07700 | 38982 ft | 433 kts | 155° |
| 2026-05-08 08:17 | 9.54003 | 123.10255 | 38982 ft | 433 kts | 155° |
| 2026-05-08 08:17 | 9.48538 | 123.12820 | 38982 ft | 433 kts | 155° |
| 2026-05-08 08:18 | 9.43115 | 123.15365 | 38982 ft | 433 kts | 155° |
| 2026-05-08 08:18 | 9.37672 | 123.17918 | 38982 ft | 433 kts | 155° |
| 2026-05-08 08:19 | 9.32202 | 123.20483 | 38982 ft | 433 kts | 155° |
| 2026-05-08 08:19 | 9.26771 | 123.23029 | 38982 ft | 433 kts | 155° |
| 2026-05-08 08:20 | 9.21331 | 123.25581 | 38982 ft | 433 kts | 155° |
| 2026-05-08 08:20 | 9.15871 | 123.28141 | 38982 ft | 433 kts | 155° |
| 2026-05-08 08:21 | 9.10420 | 123.30693 | 38982 ft | 433 kts | 155° |
| 2026-05-08 08:21 | 9.04977 | 123.33235 | 38982 ft | 433 kts | 155° |
| 2026-05-08 08:22 | 8.99528 | 123.35782 | 38982 ft | 433 kts | 155° |
| 2026-05-08 08:22 | 8.94094 | 123.38323 | 38982 ft | 433 kts | 155° |
| 2026-05-08 08:23 | 8.88625 | 123.40880 | 38982 ft | 433 kts | 155° |
| 2026-05-08 08:23 | 8.83169 | 123.43418 | 38982 ft | 433 kts | 155° |
| 2026-05-08 08:24 | 8.77741 | 123.45948 | 38981 ft | 433 kts | 155° |
| 2026-05-08 08:24 | 8.73205 | 123.48070 | 38982 ft | 433 kts | 154° |
| 2026-05-08 08:25 | 8.66828 | 123.51060 | 38982 ft | 433 kts | 155° |
| 2026-05-08 08:25 | 8.61407 | 123.53583 | 38981 ft | 433 kts | 155° |
| 2026-05-08 08:26 | 8.55943 | 123.56131 | 38981 ft | 433 kts | 155° |
| 2026-05-08 08:26 | 8.50473 | 123.58691 | 38981 ft | 433 kts | 155° |
| 2026-05-08 08:26 | 8.47738 | 123.59965 | 38769 ft | 434 kts | 155° |
| 2026-05-08 08:27 | 8.45037 | 123.61214 | 38522 ft | 431 kts | 155° |
| 2026-05-08 08:27 | 8.42326 | 123.62472 | 38272 ft | 428 kts | 155° |
| 2026-05-08 08:27 | 8.40516 | 123.63313 | 38104 ft | 426 kts | 155° |
| 2026-05-08 08:27 | 8.36971 | 123.64965 | 37773 ft | 423 kts | 155° |
| 2026-05-08 08:28 | 8.34311 | 123.66213 | 37523 ft | 422 kts | 155° |
| 2026-05-08 08:28 | 8.31659 | 123.67465 | 37275 ft | 422 kts | 155° |
| 2026-05-08 08:28 | 8.29003 | 123.68716 | 37026 ft | 422 kts | 155° |
| 2026-05-08 08:28 | 8.26346 | 123.69961 | 36777 ft | 422 kts | 155° |
| 2026-05-08 08:29 | 8.23686 | 123.71204 | 36527 ft | 422 kts | 155° |
| 2026-05-08 08:29 | 8.21040 | 123.72440 | 36280 ft | 422 kts | 155° |
| 2026-05-08 08:29 | 8.18382 | 123.73679 | 36031 ft | 422 kts | 155° |
| 2026-05-08 08:29 | 8.15731 | 123.74915 | 35782 ft | 422 kts | 155° |
| 2026-05-08 08:30 | 8.13075 | 123.76154 | 35533 ft | 423 kts | 155° |
| 2026-05-08 08:30 | 8.10407 | 123.77399 | 35284 ft | 423 kts | 155° |
| 2026-05-08 08:30 | 8.05072 | 123.79885 | 34786 ft | 424 kts | 155° |
| 2026-05-08 08:31 | 8.02394 | 123.81130 | 34536 ft | 425 kts | 155° |
| 2026-05-08 08:31 | 8.00136 | 123.82184 | 34326 ft | 425 kts | 155° |
| 2026-05-08 08:31 | 7.97449 | 123.83441 | 34076 ft | 426 kts | 155° |
| 2026-05-08 08:31 | 7.94792 | 123.84683 | 33828 ft | 426 kts | 155° |
| 2026-05-08 08:32 | 7.92101 | 123.85938 | 33578 ft | 426 kts | 155° |
| 2026-05-08 08:32 | 7.89421 | 123.87186 | 33331 ft | 427 kts | 155° |
| 2026-05-08 08:32 | 7.86720 | 123.88438 | 33081 ft | 427 kts | 155° |
| 2026-05-08 08:32 | 7.84011 | 123.89693 | 32830 ft | 428 kts | 155° |
| 2026-05-08 08:33 | 7.81311 | 123.90945 | 32580 ft | 428 kts | 155° |
| 2026-05-08 08:33 | 7.78623 | 123.92193 | 32332 ft | 429 kts | 155° |
| 2026-05-08 08:33 | 7.75928 | 123.93445 | 32083 ft | 429 kts | 155° |
| 2026-05-08 08:33 | 7.73239 | 123.94694 | 31836 ft | 430 kts | 155° |
| 2026-05-08 08:34 | 7.70505 | 123.95963 | 31585 ft | 430 kts | 155° |
| 2026-05-08 08:34 | 7.67805 | 123.97217 | 31337 ft | 431 kts | 155° |
| 2026-05-08 08:34 | 7.65097 | 123.98475 | 31087 ft | 431 kts | 155° |
| 2026-05-08 08:34 | 7.62393 | 123.99731 | 30750 ft | 429 kts | 155° |
| 2026-05-08 08:35 | 7.59680 | 124.00999 | 30422 ft | 426 kts | 155° |
| 2026-05-08 08:35 | 7.57012 | 124.02229 | 30082 ft | 424 kts | 155° |
| 2026-05-08 08:35 | 7.54338 | 124.03461 | 29677 ft | 421 kts | 155° |
| 2026-05-08 08:35 | 7.51698 | 124.04679 | 29251 ft | 418 kts | 155° |
| 2026-05-08 08:36 | 7.49069 | 124.05896 | 28813 ft | 415 kts | 155° |
| 2026-05-08 08:36 | 7.46465 | 124.07103 | 28373 ft | 412 kts | 155° |
| 2026-05-08 08:36 | 7.43908 | 124.08290 | 27936 ft | 409 kts | 155° |
| 2026-05-08 08:36 | 7.41313 | 124.09497 | 27491 ft | 405 kts | 155° |
| 2026-05-08 08:37 | 7.38788 | 124.10671 | 27056 ft | 402 kts | 155° |
| 2026-05-08 08:37 | 7.36265 | 124.11845 | 26620 ft | 399 kts | 155° |
| 2026-05-08 08:37 | 7.33757 | 124.13009 | 26183 ft | 396 kts | 155° |
| 2026-05-08 08:37 | 7.31271 | 124.14163 | 25749 ft | 393 kts | 155° |
| 2026-05-08 08:38 | 7.28810 | 124.15305 | 25316 ft | 390 kts | 155° |
| 2026-05-08 08:38 | 7.26371 | 124.16437 | 24888 ft | 387 kts | 155° |
| 2026-05-08 08:38 | 7.23947 | 124.17561 | 24458 ft | 384 kts | 155° |
| 2026-05-08 08:38 | 7.22347 | 124.18303 | 24173 ft | 382 kts | 155° |
| 2026-05-08 08:39 | 7.19957 | 124.19411 | 23747 ft | 379 kts | 155° |
| 2026-05-08 08:39 | 7.17605 | 124.20634 | 23314 ft | 376 kts | 150° |
| 2026-05-08 08:39 | 7.12698 | 124.24148 | 22329 ft | 370 kts | 141° |
| 2026-05-08 08:40 | 7.10708 | 124.25770 | 21908 ft | 368 kts | 141° |
| 2026-05-08 08:40 | 7.08754 | 124.27366 | 21493 ft | 365 kts | 141° |
| 2026-05-08 08:40 | 7.06792 | 124.28965 | 21076 ft | 363 kts | 141° |
| 2026-05-08 08:40 | 7.04835 | 124.30557 | 20659 ft | 361 kts | 141° |
| 2026-05-08 08:41 | 7.02893 | 124.32134 | 20245 ft | 358 kts | 141° |
| 2026-05-08 08:41 | 7.00960 | 124.33701 | 19831 ft | 356 kts | 141° |
| 2026-05-08 08:41 | 6.99058 | 124.35242 | 19424 ft | 354 kts | 141° |
| 2026-05-08 08:41 | 6.97141 | 124.36796 | 19012 ft | 351 kts | 141° |
| 2026-05-08 08:42 | 6.95259 | 124.38320 | 18606 ft | 349 kts | 141° |
| 2026-05-08 08:42 | 6.93376 | 124.39845 | 18201 ft | 347 kts | 141° |
| 2026-05-08 08:42 | 6.91510 | 124.41357 | 17798 ft | 345 kts | 141° |
| 2026-05-08 08:42 | 6.89654 | 124.42857 | 17396 ft | 343 kts | 141° |
| 2026-05-08 08:43 | 6.87794 | 124.44353 | 16995 ft | 340 kts | 141° |
| 2026-05-08 08:43 | 6.85942 | 124.45840 | 16595 ft | 338 kts | 141° |
| 2026-05-08 08:43 | 6.84139 | 124.47294 | 16204 ft | 336 kts | 141° |
| 2026-05-08 08:43 | 6.82325 | 124.48759 | 15810 ft | 334 kts | 141° |
| 2026-05-08 08:44 | 6.80503 | 124.50233 | 15415 ft | 332 kts | 141° |
| 2026-05-08 08:44 | 6.78722 | 124.51675 | 15026 ft | 330 kts | 141° |
| 2026-05-08 08:44 | 6.76957 | 124.53103 | 14641 ft | 328 kts | 141° |
| 2026-05-08 08:44 | 6.75173 | 124.54548 | 14251 ft | 326 kts | 141° |
| 2026-05-08 08:45 | 6.73422 | 124.55966 | 13868 ft | 324 kts | 141° |
| 2026-05-08 08:45 | 6.71666 | 124.57388 | 13483 ft | 322 kts | 141° |
| 2026-05-08 08:45 | 6.69931 | 124.58791 | 13102 ft | 320 kts | 141° |
| 2026-05-08 08:45 | 6.68216 | 124.60178 | 12725 ft | 318 kts | 141° |
| 2026-05-08 08:46 | 6.66503 | 124.61558 | 12348 ft | 317 kts | 142° |
| 2026-05-08 08:46 | 6.64745 | 124.62909 | 11967 ft | 315 kts | 143° |
| 2026-05-08 08:46 | 6.63012 | 124.64214 | 11596 ft | 313 kts | 143° |
| 2026-05-08 08:46 | 6.61273 | 124.65524 | 11223 ft | 311 kts | 143° |
| 2026-05-08 08:47 | 6.59574 | 124.66818 | 10857 ft | 309 kts | 143° |
| 2026-05-08 08:47 | 6.57865 | 124.68124 | 10488 ft | 307 kts | 143° |
| 2026-05-08 08:47 | 6.56164 | 124.69420 | 10126 ft | 305 kts | 143° |
| 2026-05-08 08:47 | 6.54525 | 124.70667 | 10039 ft | 291 kts | 143° |
| 2026-05-08 08:48 | 6.52944 | 124.71867 | 9976 ft | 279 kts | 143° |
| 2026-05-08 08:48 | 6.51385 | 124.73052 | 9639 ft | 278 kts | 143° |
| 2026-05-08 08:48 | 6.49862 | 124.74208 | 9325 ft | 276 kts | 143° |
| 2026-05-08 08:48 | 6.48326 | 124.75374 | 9012 ft | 274 kts | 143° |
| 2026-05-08 08:49 | 6.46808 | 124.76524 | 8705 ft | 272 kts | 143° |
| 2026-05-08 08:49 | 6.45313 | 124.77657 | 8404 ft | 270 kts | 143° |
| 2026-05-08 08:49 | 6.43827 | 124.78784 | 8105 ft | 268 kts | 143° |
| 2026-05-08 08:49 | 6.42338 | 124.79913 | 7804 ft | 266 kts | 143° |
| 2026-05-08 08:50 | 6.40878 | 124.81020 | 7511 ft | 264 kts | 143° |
| 2026-05-08 08:50 | 6.39449 | 124.82148 | 7215 ft | 262 kts | 138° |
| 2026-05-08 08:50 | 6.38176 | 124.83453 | 6921 ft | 260 kts | 129° |
| 2026-05-08 08:50 | 6.37092 | 124.84898 | 6632 ft | 258 kts | 125° |
| 2026-05-08 08:51 | 6.36069 | 124.86369 | 6344 ft | 257 kts | 124° |
| 2026-05-08 08:51 | 6.35053 | 124.87841 | 6057 ft | 255 kts | 124° |
| 2026-05-08 08:51 | 6.34044 | 124.89298 | 5773 ft | 254 kts | 125° |
| 2026-05-08 08:51 | 6.33037 | 124.90744 | 5490 ft | 251 kts | 125° |
| 2026-05-08 08:52 | 6.32056 | 124.92154 | 5215 ft | 247 kts | 125° |
| 2026-05-08 08:52 | 6.31071 | 124.93567 | 4939 ft | 244 kts | 125° |
| 2026-05-08 08:52 | 6.30107 | 124.94946 | 4669 ft | 241 kts | 125° |
| 2026-05-08 08:52 | 6.29145 | 124.96312 | 4401 ft | 237 kts | 126° |
| 2026-05-08 08:53 | 6.28220 | 124.97654 | 4135 ft | 233 kts | 121° |
| 2026-05-08 08:53 | 6.27472 | 124.99091 | 3872 ft | 230 kts | 112° |
| 2026-05-08 08:53 | 6.26942 | 125.00584 | 3615 ft | 221 kts | 107° |
| 2026-05-08 08:53 | 6.26512 | 125.02006 | 3410 ft | 206 kts | 107° |
| 2026-05-08 08:54 | 6.26115 | 125.03358 | 3442 ft | 195 kts | 106° |
| 2026-05-08 08:54 | 6.25755 | 125.04594 | 3428 ft | 176 kts | 105° |
| 2026-05-08 08:54 | 6.25432 | 125.05701 | 3367 ft | 155 kts | 107° |
| 2026-05-08 08:54 | 6.24954 | 125.06647 | 3387 ft | 151 kts | 132° |
| 2026-05-08 08:55 | 6.24132 | 125.07283 | 3353 ft | 149 kts | 156° |
| 2026-05-08 08:55 | 6.23163 | 125.07539 | 3141 ft | 141 kts | 173° |
| 2026-05-08 08:55 | 6.22187 | 125.07649 | 3049 ft | 140 kts | 173° |
| 2026-05-08 08:55 | 6.21229 | 125.07746 | 2966 ft | 140 kts | 175° |
| 2026-05-08 08:56 | 6.20254 | 125.07846 | 2880 ft | 140 kts | 174° |
| 2026-05-08 08:56 | 6.19292 | 125.07959 | 2795 ft | 140 kts | 173° |
| 2026-05-08 08:56 | 6.18320 | 125.08071 | 2695 ft | 140 kts | 174° |
| 2026-05-08 08:56 | 6.17355 | 125.08182 | 2503 ft | 139 kts | 172° |
| 2026-05-08 08:57 | 6.16400 | 125.08294 | 2326 ft | 139 kts | 174° |
| 2026-05-08 08:57 | 6.15439 | 125.08404 | 2187 ft | 138 kts | 174° |
| 2026-05-08 08:57 | 6.14495 | 125.08511 | 2047 ft | 138 kts | 173° |
| 2026-05-08 08:57 | 6.13544 | 125.08631 | 1907 ft | 138 kts | 172° |
| 2026-05-08 08:58 | 6.12580 | 125.08745 | 1745 ft | 138 kts | 173° |
| 2026-05-08 08:58 | 6.11635 | 125.08858 | 1562 ft | 137 kts | 173° |
| 2026-05-08 08:58 | 6.10692 | 125.08978 | 1378 ft | 137 kts | 172° |
| 2026-05-08 08:58 | 6.09751 | 125.09132 | 1099 ft | 138 kts | 173° |
| 2026-05-08 08:59 | 6.08814 | 125.09260 | 859 ft | 136 kts | 177° |
| 2026-05-08 08:59 | 6.07869 | 125.09363 | 678 ft | 136 kts | 174° |
| 2026-05-08 08:59 | 6.06939 | 125.09479 | 514 ft | 128 kts | 174° |
| 2026-05-08 08:59 | 6.06176 | 125.09573 | 511 ft | 83 kts | 173° |
| 2026-05-08 09:00 | 6.05884 | 125.09611 | 511 ft | 11 kts | 171° |
| 2026-05-08 09:00 | 6.05824 | 125.09641 | 511 ft | 8 kts | 109° |
| 2026-05-08 09:00 | 6.05826 | 125.09695 | 511 ft | 7 kts | 82° |
| 2026-05-08 09:00 | 6.05833 | 125.09753 | 511 ft | 8 kts | 82° |
| 2026-05-08 09:01 | 6.05841 | 125.09815 | 511 ft | 7 kts | 85° |
| 2026-05-08 09:01 | 6.05831 | 125.09852 | 511 ft | 5 kts | 128° |
| 2026-05-08 09:01 | 6.05797 | 125.09867 | 511 ft | 5 kts | 171° |
| 2026-05-08 09:01 | 6.05775 | 125.09878 | 511 ft | 3 kts | 128° |
| 2026-05-08 09:02 | 6.05771 | 125.09905 | 511 ft | 4 kts | 86° |
| 2026-05-08 09:02 | 6.05774 | 125.09934 | 511 ft | 3 kts | 83° |
| 2026-05-08 09:02 | 6.05777 | 125.09957 | 511 ft | 3 kts | 83° |
| 2026-05-08 09:02 | 6.05777 | 125.09961 | 511 ft | 0 kts | 83° |